Terminal Aerodrome Forecast
Issued by NWS

Home | Current Version | Previous Version | Text Only | Print | Product List | Glossary On
Versions: 1 2 3 4 5 6 7 8 9 10 11 12 13 14 15 16 17 18
000
FTUS43 KDVN 280900 AAA
TAFCID
TAF AMD
KCID 280930Z 2810/2906 10006KT P6SM SCT025 BKN100
      TEMPO 2810/2812 BKN025
     FM281200 09004KT P6SM VCSH SCT015 OVC025
     FM281400 11005KT 3SM TSRA BR BKN012CB OVC030
     FM281800 13008KT P6SM VCTS SCT020 BKN035CB PROB30 2820/2824 3SM
      TSRA BKN020CB OVC030=

USA.gov is the U.S. government's official web portal to all federal, state and local government web resources and services.